createdAt,value
2022-09-18T00:02:36.589Z,9.09
2022-09-18T00:07:38.144Z,9.14
2022-09-18T00:12:39.706Z,9.13
2022-09-18T00:17:41.270Z,9.22
2022-09-18T00:22:43.173Z,9.27
2022-09-18T00:27:44.714Z,9.13
2022-09-18T00:32:46.296Z,9.06
2022-09-18T00:37:47.882Z,8.98
2022-09-18T00:42:49.463Z,9.08
2022-09-18T00:47:52.438Z,9.16
2022-09-18T00:52:58.876Z,9.18
2022-09-18T00:58:03.201Z,9.22
2022-09-18T01:03:05.371Z,9.40
2022-09-18T01:08:25.543Z,9.40
2022-09-18T01:13:34.909Z,9.33
2022-09-18T01:19:02.485Z,9.35
2022-09-18T01:24:33.103Z,9.45
2022-09-18T01:30:02.464Z,9.29
2022-09-18T01:35:48.051Z,9.23
2022-09-18T01:40:49.568Z,9.19
2022-09-18T01:45:55.470Z,9.20
2022-09-18T01:51:21.432Z,9.13
2022-09-18T01:56:28.367Z,9.18
2022-09-18T02:01:33.831Z,9.23
2022-09-18T02:06:44.511Z,9.02
2022-09-18T02:11:52.197Z,9.06
2022-09-18T02:17:01.398Z,9.16
2022-09-18T02:22:10.940Z,9.12
2022-09-18T02:27:15.333Z,9.17
2022-09-18T02:32:17.260Z,9.04
2022-09-18T02:37:29.229Z,9.11
2022-09-18T02:42:52.170Z,9.02
2022-09-18T02:48:21.707Z,8.96
2022-09-18T02:53:42.429Z,8.93
2022-09-18T02:58:56.223Z,8.88
2022-09-18T03:04:10.262Z,8.85
2022-09-18T03:09:26.323Z,8.87
2022-09-18T03:14:28.367Z,8.83
2022-09-18T03:19:30.549Z,8.84
2022-09-18T03:24:33.515Z,8.87
2022-09-18T03:29:37.137Z,8.84
2022-09-18T03:34:39.385Z,8.83
2022-09-18T03:39:40.953Z,8.81
2022-09-18T03:44:46.233Z,8.77
2022-09-18T03:50:01.719Z,8.76
2022-09-18T03:55:07.465Z,8.81
2022-09-18T04:00:38.276Z,8.71
2022-09-18T04:05:49.222Z,8.82
2022-09-18T04:10:56.637Z,8.74
2022-09-18T04:15:59.540Z,8.74
2022-09-18T04:21:03.769Z,8.69
2022-09-18T04:26:09.499Z,8.78
2022-09-18T04:31:16.912Z,8.81
2022-09-18T04:36:18.723Z,8.83
2022-09-18T04:41:21.777Z,8.79
2022-09-18T04:46:23.453Z,8.77
2022-09-18T04:51:27.022Z,8.78
2022-09-18T04:56:28.787Z,8.70
2022-09-18T05:01:32.094Z,8.69
2022-09-18T05:06:37.682Z,8.70
2022-09-18T05:11:39.322Z,8.75
2022-09-18T05:16:40.870Z,8.70
2022-09-18T05:22:02.729Z,8.71
2022-09-18T05:27:09.248Z,8.76
2022-09-18T05:32:11.217Z,8.74
2022-09-18T05:37:14.100Z,8.65
2022-09-18T05:42:16.315Z,8.72
2022-09-18T05:47:18.979Z,8.75
2022-09-18T05:52:21.056Z,8.74
2022-09-18T05:57:23.211Z,8.85
2022-09-18T06:02:25.093Z,8.81
2022-09-18T06:07:42.867Z,8.82
2022-09-18T06:12:45.289Z,8.93
2022-09-18T06:17:51.399Z,8.99
2022-09-18T06:22:54.070Z,9.14
2022-09-18T06:28:09.946Z,9.43
2022-09-18T06:33:12.261Z,9.49
2022-09-18T06:38:15.670Z,9.80
2022-09-18T06:43:22.393Z,9.83
2022-09-18T06:48:51.089Z,9.69
2022-09-18T06:53:52.903Z,9.70
2022-09-18T06:58:55.484Z,9.99
2022-09-18T07:03:57.725Z,10.03
2022-09-18T07:09:07.416Z,10.10
2022-09-18T07:14:32.369Z,10.21
2022-09-18T07:19:43.750Z,10.25
2022-09-18T07:24:47.963Z,10.03
2022-09-18T07:29:51.157Z,9.95
2022-09-18T07:34:54.682Z,10.01
2022-09-18T07:40:02.043Z,10.19
2022-09-18T07:45:22.812Z,10.23
2022-09-18T07:50:25.194Z,10.46
2022-09-18T07:55:28.716Z,10.75
2022-09-18T08:00:36.224Z,10.77
2022-09-18T08:05:38.835Z,10.89
2022-09-18T08:10:43.214Z,10.98
2022-09-18T08:16:13.937Z,11.18
2022-09-18T08:21:34.293Z,11.09
2022-09-18T08:26:38.791Z,11.11
2022-09-18T08:31:41.700Z,11.36
2022-09-18T08:36:45.204Z,11.76
2022-09-18T08:42:26.034Z,11.89
2022-09-18T08:47:53.254Z,12.04
2022-09-18T08:53:23.460Z,12.36
2022-09-18T08:59:00.958Z,12.24
2022-09-18T09:04:19.427Z,12.14
2022-09-18T09:09:29.517Z,11.96
2022-09-18T09:14:56.700Z,11.96
2022-09-18T09:20:16.975Z,12.27
2022-09-18T09:25:25.179Z,12.54
2022-09-18T09:30:56.025Z,12.79
2022-09-18T09:36:29.520Z,13.46
2022-09-18T09:41:48.026Z,13.35
2022-09-18T09:46:50.100Z,13.63
2022-09-18T09:52:11.076Z,13.04
2022-09-18T09:57:49.609Z,13.92
2022-09-18T10:03:16.140Z,14.45
2022-09-18T10:08:29.333Z,13.91
2022-09-18T10:13:33.116Z,13.99
2022-09-18T10:18:42.066Z,14.01
2022-09-18T10:23:53.369Z,13.23
2022-09-18T10:28:56.381Z,13.25
2022-09-18T10:33:58.395Z,13.68
2022-09-18T10:39:34.448Z,14.48
2022-09-18T10:44:41.389Z,14.55
2022-09-18T10:50:06.507Z,13.70
2022-09-18T10:55:28.336Z,12.47
2022-09-18T11:00:47.534Z,13.23
2022-09-18T11:05:57.526Z,13.83
2022-09-18T11:11:31.688Z,15.00
2022-09-18T11:16:48.735Z,15.15
2022-09-18T11:21:56.070Z,14.75
2022-09-18T11:27:03.943Z,14.95
2022-09-18T11:32:26.126Z,15.34
2022-09-18T11:37:53.187Z,15.49
2022-09-18T11:42:56.985Z,15.53
2022-09-18T11:48:29.969Z,15.68
2022-09-18T11:53:39.356Z,15.67
2022-09-18T11:59:03.617Z,15.29
2022-09-18T12:04:16.499Z,15.39
2022-09-18T12:09:45.695Z,15.24
2022-09-18T12:14:57.930Z,15.28
2022-09-18T12:20:08.776Z,14.84
2022-09-18T12:25:16.748Z,14.71
2022-09-18T12:30:50.111Z,14.40
2022-09-18T12:36:07.026Z,14.22
2022-09-18T12:41:33.779Z,14.28
2022-09-18T12:46:50.678Z,14.03
2022-09-18T12:52:43.508Z,13.91
2022-09-18T12:58:44.715Z,13.91
2022-09-18T13:03:48.716Z,13.74
2022-09-18T13:09:01.719Z,13.73
2022-09-18T13:14:15.806Z,13.81
2022-09-18T13:19:26.161Z,14.01
2022-09-18T13:24:33.119Z,14.08
2022-09-18T13:29:51.389Z,13.98
2022-09-18T13:34:56.559Z,13.88
2022-09-18T13:40:10.323Z,13.88
2022-09-18T13:45:12.486Z,13.89
2022-09-18T13:50:18.951Z,13.76
2022-09-18T13:55:22.398Z,13.88
2022-09-18T14:00:24.387Z,13.77
2022-09-18T14:05:38.438Z,13.62
2022-09-18T14:11:14.975Z,13.54
2022-09-18T14:16:20.683Z,13.29
2022-09-18T14:21:31.776Z,12.94
2022-09-18T14:26:35.174Z,12.78
2022-09-18T14:31:49.317Z,12.81
2022-09-18T14:36:55.314Z,12.60
2022-09-18T14:42:05.682Z,12.24
2022-09-18T14:47:20.643Z,11.94
2022-09-18T14:52:31.950Z,11.69
2022-09-18T14:57:43.414Z,11.56
2022-09-18T15:02:50.736Z,11.29
2022-09-18T15:08:17.045Z,11.24
2022-09-18T15:13:23.714Z,11.09
2022-09-18T15:18:28.010Z,11.02
2022-09-18T15:23:38.269Z,10.85
2022-09-18T15:28:43.164Z,10.75
2022-09-18T15:33:56.228Z,10.67
2022-09-18T15:38:58.593Z,10.41
2022-09-18T15:44:00.463Z,10.43
2022-09-18T15:49:23.144Z,10.37
2022-09-18T15:54:27.262Z,10.35
2022-09-18T15:59:33.815Z,10.42
2022-09-18T16:04:36.337Z,10.43
2022-09-18T16:09:48.844Z,10.36
2022-09-18T16:14:56.828Z,10.37
2022-09-18T16:20:01.124Z,10.42
2022-09-18T16:25:13.750Z,10.26
2022-09-18T16:30:15.837Z,10.40
2022-09-18T16:35:17.597Z,10.39
2022-09-18T16:40:27.441Z,10.36
2022-09-18T16:45:29.512Z,10.36
2022-09-18T16:50:31.260Z,10.33
2022-09-18T16:55:33.616Z,10.27
2022-09-18T17:00:37.734Z,10.22
2022-09-18T17:05:39.580Z,10.17
2022-09-18T17:10:44.980Z,10.14
2022-09-18T17:15:46.936Z,10.16
2022-09-18T17:20:48.546Z,10.06
2022-09-18T17:25:50.531Z,10.03
2022-09-18T17:30:54.134Z,10.01
2022-09-18T17:35:55.855Z,9.91
2022-09-18T17:41:00.533Z,9.72
2022-09-18T17:46:05.210Z,9.72
2022-09-18T17:51:12.983Z,9.63
2022-09-18T17:56:17.276Z,9.58
2022-09-18T18:01:20.795Z,9.56
2022-09-18T18:06:22.500Z,9.45
2022-09-18T18:11:29.373Z,9.49
2022-09-18T18:16:31.712Z,9.33
2022-09-18T18:21:34.531Z,9.38
2022-09-18T18:26:37.740Z,9.31
2022-09-18T18:31:43.445Z,9.38
2022-09-18T18:36:45.293Z,9.38
2022-09-18T18:41:47.506Z,9.32
2022-09-18T18:46:51.140Z,9.37
2022-09-18T18:51:53.039Z,9.38
2022-09-18T18:56:54.781Z,9.23
2022-09-18T19:01:57.957Z,9.24
2022-09-18T19:07:00.883Z,9.24
2022-09-18T19:12:03.406Z,9.24
2022-09-18T19:17:05.377Z,9.13
2022-09-18T19:22:07.116Z,9.19
2022-09-18T19:27:09.216Z,9.10
2022-09-18T19:32:10.897Z,9.13
2022-09-18T19:37:16.696Z,9.01
2022-09-18T19:42:24.177Z,9.07
2022-09-18T19:47:34.845Z,9.03
2022-09-18T19:52:36.769Z,9.03
2022-09-18T19:57:38.376Z,9.03
2022-09-18T20:02:41.131Z,8.91
2022-09-18T20:07:42.983Z,8.82
2022-09-18T20:12:44.740Z,8.87
2022-09-18T20:17:46.479Z,8.87
2022-09-18T20:22:51.936Z,8.81
2022-09-18T20:27:53.521Z,8.80
2022-09-18T20:32:55.092Z,8.76
2022-09-18T20:38:00.766Z,8.80
2022-09-18T20:43:04.316Z,8.78
2022-09-18T20:48:06.428Z,8.72
2022-09-18T20:53:09.223Z,8.66
2022-09-18T20:58:11.346Z,8.68
2022-09-18T21:03:14.242Z,8.58
2022-09-18T21:08:15.844Z,8.54
2022-09-18T21:13:19.135Z,8.59
2022-09-18T21:18:20.662Z,8.57
2022-09-18T21:23:40.582Z,8.48
2022-09-18T21:28:42.219Z,8.47
2022-09-18T21:33:44.241Z,8.55
2022-09-18T21:38:48.311Z,8.53
2022-09-18T21:43:51.132Z,8.45
2022-09-18T21:48:54.404Z,8.40
2022-09-18T21:53:59.132Z,8.62
2022-09-18T21:59:01.281Z,8.63
2022-09-18T22:04:03.010Z,8.69
2022-09-18T22:09:14.571Z,8.68
2022-09-18T22:14:25.408Z,8.81
2022-09-18T22:19:27.943Z,8.83
2022-09-18T22:24:29.899Z,8.96
2022-09-18T22:29:34.358Z,8.98
2022-09-18T22:34:35.975Z,9.05
2022-09-18T22:39:37.557Z,9.05
2022-09-18T22:44:39.147Z,9.15
2022-09-18T22:49:41.148Z,9.18
2022-09-18T22:54:42.688Z,9.21
2022-09-18T22:59:44.246Z,9.09
2022-09-18T23:04:46.956Z,9.06
2022-09-18T23:09:48.546Z,9.07
2022-09-18T23:14:50.096Z,8.97
2022-09-18T23:19:51.651Z,8.91
2022-09-18T23:24:53.189Z,8.81
2022-09-18T23:29:54.957Z,8.79
2022-09-18T23:34:56.547Z,8.57
2022-09-18T23:39:58.084Z,8.63
2022-09-18T23:44:59.674Z,8.61
2022-09-18T23:50:01.289Z,8.61
2022-09-18T23:55:02.917Z,8.58
